Time;durP1;ratioP1;P1;durP2;ratioP2;P2;SDS_P1;SDS_P2;PMS_P1;PMS_P2;Temp;Humidity;BMP_temperature;BMP_pressure;BME280_temperature;BME280_humidity;BME280_pressure;Samples;Min_cycle;Max_cycle;Signal;HPM_P1;HPM_P2
2023/06/18 00:00:23;;;;;;;11.10;10.20;;;;;;;18.55;54.84;100508.13;4857568;29;20458;-83
2023/06/18 00:03:12;;;;;;;11.27;10.00;;;;;;;18.70;54.00;100504.81;4864538;29;20824;-82
2023/06/18 00:06:00;;;;;;;10.53;9.67;;;;;;;18.54;55.18;100505.88;4876217;29;20817;-82
2023/06/18 00:08:46;;;;;;;10.73;9.77;;;;;;;18.44;54.78;100515.97;4863109;29;20547;-83
2023/06/18 00:11:34;;;;;;;10.53;9.73;;;;;;;18.50;55.10;100511.78;4864085;29;20880;-83
2023/06/18 00:14:21;;;;;;;10.80;9.93;;;;;;;18.38;54.69;100504.09;4862738;29;20816;-83
2023/06/18 00:17:08;;;;;;;10.53;9.57;;;;;;;18.43;55.23;100503.25;4863165;29;21010;-83
2023/06/18 00:19:57;;;;;;;11.37;10.33;;;;;;;18.43;53.84;100506.78;4875261;29;20844;-83
2023/06/18 00:22:48;;;;;;;10.60;9.70;;;;;;;18.62;52.60;100507.50;4874372;29;20827;-82
2023/06/18 00:25:36;;;;;;;11.00;10.00;;;;;;;18.63;54.78;100509.00;4871328;29;20847;-83
2023/06/18 00:28:23;;;;;;;10.83;9.93;;;;;;;18.67;53.60;100514.28;4874978;29;20806;-82
2023/06/18 00:31:11;;;;;;;10.30;9.40;;;;;;;18.62;53.79;100507.50;4873978;29;20927;-82
2023/06/18 00:34:04;;;;;;;9.70;8.90;;;;;;;18.56;54.01;100509.63;4856611;29;20816;-82
2023/06/18 00:36:53;;;;;;;10.03;9.03;;;;;;;18.48;54.64;100503.16;4862778;29;20926;-83
2023/06/18 00:39:40;;;;;;;10.00;9.10;;;;;;;18.47;54.79;100486.91;4874810;29;20848;-83
2023/06/18 00:42:28;;;;;;;9.87;8.87;;;;;;;18.49;53.49;100490.69;4863741;29;20827;-83
2023/06/18 00:45:16;;;;;;;10.00;9.10;;;;;;;18.57;53.73;100491.56;4862483;29;20778;-82
2023/06/18 00:48:04;;;;;;;11.40;10.00;;;;;;;18.64;53.83;100492.97;4858009;29;20442;-82
2023/06/18 00:50:51;;;;;;;10.93;10.13;;;;;;;18.73;52.28;100484.88;4862734;29;20963;-83
2023/06/18 00:53:41;;;;;;;9.80;9.00;;;;;;;18.81;51.17;100480.16;4862531;29;20907;-83
2023/06/18 00:56:29;;;;;;;10.20;9.40;;;;;;;18.83;51.67;100477.56;4874648;29;20484;-83
2023/06/18 00:59:21;;;;;;;9.90;9.10;;;;;;;18.94;52.13;100476.63;4873649;29;20813;-83
2023/06/18 01:02:08;;;;;;;9.60;8.77;;;;;;;18.73;53.04;100468.09;4870570;29;20804;-82
2023/06/18 01:04:59;;;;;;;9.60;8.87;;;;;;;18.72;53.73;100477.06;4861938;29;20438;-83
2023/06/18 01:07:48;;;;;;;9.60;8.80;;;;;;;18.72;52.87;100477.06;4864040;29;20442;-82
2023/06/18 01:10:39;;;;;;;10.23;9.23;;;;;;;18.77;52.71;100474.16;4862071;29;20862;-83
2023/06/18 01:13:30;;;;;;;9.20;8.50;;;;;;;18.73;52.93;100468.09;4862699;29;21110;-83
2023/06/18 01:16:24;;;;;;;9.53;8.73;;;;;;;18.78;51.79;100475.66;4862225;29;20850;-83
2023/06/18 01:19:21;;;;;;;8.60;7.90;;;;;;;18.78;51.74;100467.25;4862036;29;20475;-83
2023/06/18 01:22:17;;;;;;;9.87;9.07;;;;;;;18.78;51.93;100458.84;4861844;29;20499;-83
2023/06/18 01:25:07;;;;;;;9.93;9.07;;;;;;;18.56;53.13;100464.84;4863449;29;20507;-83
2023/06/18 01:27:57;;;;;;;8.93;8.17;;;;;;;18.54;53.40;100466.69;4863787;29;20812;-83
2023/06/18 01:30:44;;;;;;;9.57;8.70;;;;;;;18.41;53.29;100464.59;4876886;29;20441;-83
2023/06/18 01:33:34;;;;;;;9.20;8.47;;;;;;;18.35;52.97;100463.94;4853148;29;20442;-83
2023/06/18 01:36:39;;;;;;;9.70;8.93;;;;;;;18.32;53.56;100459.41;4864590;29;20462;-82
2023/06/18 01:39:36;;;;;;;10.03;9.23;;;;;;;18.44;53.42;100457.94;4864468;29;20835;-82
2023/06/18 01:42:27;;;;;;;9.97;9.07;;;;;;;18.44;52.20;100451.59;4863329;29;20853;-82
2023/06/18 01:45:22;;;;;;;10.47;9.57;;;;;;;18.88;49.37;100453.56;4875393;29;20781;-82
2023/06/18 01:48:12;;;;;;;9.63;8.83;;;;;;;18.84;51.19;100453.88;4863127;29;20936;-82
2023/06/18 01:50:59;;;;;;;9.13;8.33;;;;;;;18.43;52.61;100461.28;4863386;29;20820;-81
2023/06/18 01:53:49;;;;;;;9.20;8.50;;;;;;;18.25;53.12;100448.81;4863783;29;21011;-81
2023/06/18 01:56:37;;;;;;;10.50;9.70;;;;;;;18.27;53.03;100454.63;4863125;29;20905;-81
2023/06/18 01:59:25;;;;;;;10.63;9.73;;;;;;;18.21;52.28;100445.59;4859481;29;20858;-81
2023/06/18 02:02:13;;;;;;;9.70;9.00;;;;;;;18.19;53.06;100453.78;4878790;29;20441;-81
2023/06/18 02:05:02;;;;;;;9.17;8.40;;;;;;;18.13;51.30;100447.50;4865573;29;20442;-81
2023/06/18 02:07:49;;;;;;;9.40;8.60;;;;;;;18.11;53.15;100452.88;4866144;29;20831;-82
2023/06/18 02:10:36;;;;;;;9.27;8.30;;;;;;;18.13;52.76;100461.47;4874861;29;20808;-82
2023/06/18 02:13:23;;;;;;;9.47;8.37;;;;;;;18.12;52.57;100459.22;4867386;29;22029;-81
2023/06/18 02:16:10;;;;;;;9.77;8.93;;;;;;;18.01;52.70;100465.75;4867614;29;20507;-82
2023/06/18 02:18:58;;;;;;;10.37;9.10;;;;;;;18.00;53.16;100469.06;4867672;29;20851;-82
2023/06/18 02:21:45;;;;;;;9.77;8.87;;;;;;;17.98;52.95;100464.00;4864690;29;20861;-82
2023/06/18 02:24:34;;;;;;;9.53;8.70;;;;;;;18.27;51.90;100454.63;4866203;29;20930;-82
2023/06/18 02:27:21;;;;;;;10.20;9.30;;;;;;;18.36;51.55;100451.44;4866968;29;20860;-81
2023/06/18 02:30:09;;;;;;;10.40;8.37;;;;;;;18.27;52.69;100448.28;4866100;29;21102;-82
2023/06/18 02:32:58;;;;;;;10.23;8.50;;;;;;;18.07;53.43;100444.03;4866181;29;20872;-81
2023/06/18 02:35:46;;;;;;;9.80;8.90;;;;;;;17.88;53.27;100448.16;4865859;29;20469;-81
2023/06/18 02:38:33;;;;;;;9.73;8.93;;;;;;;17.82;55.19;100448.25;4860315;29;20469;-82
2023/06/18 02:41:21;;;;;;;10.27;9.37;;;;;;;17.77;55.10;100437.16;4878863;29;20929;-81
2023/06/18 02:44:08;;;;;;;10.20;9.37;;;;;;;17.68;55.63;100443.88;4865565;29;20883;-82
2023/06/18 02:46:56;;;;;;;9.90;9.10;;;;;;;17.71;54.42;100447.66;4864715;29;21074;-81
2023/06/18 02:49:44;;;;;;;9.83;8.90;;;;;;;17.65;55.39;100450.53;4876646;29;20854;-82
2023/06/18 02:52:33;;;;;;;10.10;9.17;;;;;;;17.57;55.66;100444.03;4868078;29;20452;-81
2023/06/18 02:55:20;;;;;;;9.20;8.40;;;;;;;17.42;55.53;100438.16;4865023;29;20445;-81
2023/06/18 02:58:17;;;;;;;10.20;9.33;;;;;;;17.27;56.49;100437.81;4878385;29;20438;-81
2023/06/18 03:01:04;;;;;;;9.30;8.60;;;;;;;17.23;56.58;100437.38;4865083;29;20940;-82
2023/06/18 03:04:02;;;;;;;9.40;8.60;;;;;;;17.32;55.55;100442.59;4865701;29;20448;-82
2023/06/18 03:06:52;;;;;;;9.87;9.07;;;;;;;17.23;56.22;100426.19;4865652;29;20837;-81
2023/06/18 03:09:40;;;;;;;9.10;8.50;;;;;;;17.30;56.81;100439.53;4870958;29;21248;-82
2023/06/18 03:12:28;;;;;;;10.27;9.37;;;;;;;17.31;56.07;100434.72;4864876;29;20812;-81
2023/06/18 03:15:16;;;;;;;10.13;9.43;;;;;;;17.36;55.87;100433.94;4864560;29;20846;-81
2023/06/18 03:18:04;;;;;;;10.00;9.10;;;;;;;17.07;56.56;100440.38;4877037;29;20450;-81
2023/06/18 03:20:51;;;;;;;10.40;9.40;;;;;;;17.06;56.24;100433.25;4863950;29;20445;-81
2023/06/18 03:23:39;;;;;;;9.40;8.70;;;;;;;17.23;55.35;100442.97;4865380;29;20441;-82
2023/06/18 03:26:31;;;;;;;9.03;8.23;;;;;;;17.10;57.61;100451.22;4866357;29;20462;-82
2023/06/18 03:29:18;;;;;;;9.33;8.63;;;;;;;16.98;57.83;100447.06;4865718;29;20922;-82
2023/06/18 03:32:06;;;;;;;11.13;10.10;;;;;;;16.95;58.27;100462.09;4864343;29;20919;-81
2023/06/18 03:34:57;;;;;;;10.17;9.17;;;;;;;17.11;57.67;100455.53;4864151;29;20835;-81
2023/06/18 03:37:44;;;;;;;10.47;9.47;;;;;;;16.94;58.56;100460.56;4864915;29;20452;-82
2023/06/18 03:40:33;;;;;;;9.87;8.97;;;;;;;16.88;58.26;100462.66;4878152;29;20441;-81
2023/06/18 03:43:22;;;;;;;10.73;9.83;;;;;;;16.90;57.95;100459.34;4870143;29;20441;-81
2023/06/18 03:46:09;;;;;;;9.70;8.90;;;;;;;16.90;58.30;100465.69;4864015;29;20470;-81
2023/06/18 03:48:56;;;;;;;10.37;9.40;;;;;;;16.97;57.54;100465.09;4850588;29;20816;-80
2023/06/18 03:51:43;;;;;;;9.63;8.83;;;;;;;16.99;57.04;100461.78;4876026;29;20889;-81
2023/06/18 03:54:31;;;;;;;10.50;9.70;;;;;;;16.78;58.58;100463.56;4863833;29;20813;-82
2023/06/18 03:57:20;;;;;;;10.63;9.73;;;;;;;16.88;57.29;100473.81;4863254;29;20848;-81
2023/06/18 04:00:10;;;;;;;10.30;9.50;;;;;;;16.89;58.71;100469.75;4860916;29;20838;-81
2023/06/18 04:03:00;;;;;;;10.50;9.57;;;;;;;17.01;58.97;100475.97;4863349;29;20813;-81
2023/06/18 04:05:47;;;;;;;10.43;9.53;;;;;;;16.83;59.30;100471.88;4863343;29;20472;-82
2023/06/18 04:08:35;;;;;;;10.50;9.60;;;;;;;16.83;58.46;100480.25;4875406;29;20446;-81
2023/06/18 04:11:22;;;;;;;9.77;9.07;;;;;;;16.92;58.32;100485.47;4864163;29;20468;-81
2023/06/18 04:14:09;;;;;;;10.77;9.77;;;;;;;17.03;57.90;100485.34;4864496;29;20847;-81
2023/06/18 04:16:58;;;;;;;9.57;8.87;;;;;;;17.11;57.69;100486.25;4864135;29;20914;-82
2023/06/18 04:19:45;;;;;;;10.03;9.13;;;;;;;17.13;58.61;100483.72;4862339;29;20497;-82
2023/06/18 04:22:33;;;;;;;10.50;9.70;;;;;;;17.13;58.35;100483.72;4858132;29;21230;-82
2023/06/18 04:25:21;;;;;;;10.23;9.43;;;;;;;17.16;59.07;100488.22;4862225;29;20442;-81
2023/06/18 04:28:10;;;;;;;11.17;10.27;;;;;;;17.23;58.56;100487.66;4863647;29;20803;-81
2023/06/18 04:30:57;;;;;;;11.03;9.93;;;;;;;17.31;57.15;100493.38;4877196;29;20934;-82
2023/06/18 04:33:46;;;;;;;10.53;9.53;;;;;;;17.37;57.76;100492.06;4864421;29;20837;-82
2023/06/18 04:36:35;;;;;;;11.80;10.80;;;;;;;17.58;55.66;100479.06;4863384;29;20454;-82
2023/06/18 04:39:22;;;;;;;10.30;9.40;;;;;;;17.62;55.00;100490.72;4864171;29;20465;-81
2023/06/18 04:42:11;;;;;;;10.03;9.23;;;;;;;17.83;55.83;100491.69;4863110;29;20863;-82
2023/06/18 04:44:58;;;;;;;11.20;10.10;;;;;;;17.81;57.72;100497.06;4863104;29;20850;-82
2023/06/18 04:47:46;;;;;;;9.93;9.03;;;;;;;17.90;57.08;100488.28;4876400;29;20452;-81
2023/06/18 04:50:35;;;;;;;10.23;9.43;;;;;;;18.13;55.92;100483.88;4863787;29;20844;-81
2023/06/18 04:53:25;;;;;;;10.90;9.90;;;;;;;18.28;57.28;100484.13;4875213;29;20440;-81
2023/06/18 04:56:13;;;;;;;10.43;9.50;;;;;;;18.30;57.40;100481.59;4864187;29;21000;-82
2023/06/18 04:59:02;;;;;;;10.13;9.30;;;;;;;18.35;58.34;100489.13;4863389;29;20473;-82
2023/06/18 05:01:50;;;;;;;9.57;8.77;;;;;;;18.61;57.00;100478.00;4874302;29;20946;-81
2023/06/18 05:04:37;;;;;;;10.67;9.67;;;;;;;18.92;57.10;100485.56;4876095;29;20808;-81
2023/06/18 05:07:25;;;;;;;10.30;9.40;;;;;;;18.98;57.49;100482.66;4863380;29;20494;-80
2023/06/18 05:10:13;;;;;;;9.10;8.40;;;;;;;18.97;58.67;100487.50;4863387;29;20812;-82
2023/06/18 05:13:01;;;;;;;10.00;9.20;;;;;;;18.90;56.86;100481.78;4874441;29;20868;-81
2023/06/18 05:15:48;;;;;;;9.50;8.77;;;;;;;19.08;57.00;100480.91;4862844;29;20461;-81
2023/06/18 05:18:36;;;;;;;9.00;8.30;;;;;;;19.34;56.10;100470.50;4861545;29;20442;-81
2023/06/18 05:21:23;;;;;;;9.23;8.63;;;;;;;19.51;54.46;100490.50;4873619;29;20839;-81
2023/06/18 05:24:12;;;;;;;9.90;9.10;;;;;;;19.68;53.26;100485.28;4861983;29;20812;-80
2023/06/18 05:26:59;;;;;;;9.50;8.90;;;;;;;19.77;53.05;100484.84;4862202;29;20805;-81
2023/06/18 05:29:46;;;;;;;8.17;7.47;;;;;;;19.76;54.96;100484.06;4873646;29;20793;-81
2023/06/18 05:32:33;;;;;;;11.10;8.57;;;;;;;19.89;51.43;100486.84;4877161;29;20442;-81
2023/06/18 05:35:24;;;;;;;8.93;8.23;;;;;;;19.89;52.83;100491.69;4859834;29;20445;-81
2023/06/18 05:38:17;;;;;;;8.90;8.10;;;;;;;20.01;52.54;100488.09;4870301;29;20906;-81
2023/06/18 05:41:05;;;;;;;8.77;8.13;;;;;;;20.22;53.51;100490.94;4865974;29;20789;-81
2023/06/18 05:43:52;;;;;;;11.37;8.30;;;;;;;20.35;51.09;100493.69;4864524;29;20442;-81
2023/06/18 05:46:39;;;;;;;8.93;8.23;;;;;;;20.37;52.87;100496.69;4863867;29;20494;-81
2023/06/18 05:49:27;;;;;;;8.73;8.03;;;;;;;20.39;51.02;100494.84;4875283;29;20796;-81
2023/06/18 05:52:14;;;;;;;8.80;8.00;;;;;;;20.43;53.55;100498.06;4877349;29;20869;-81
2023/06/18 05:55:01;;;;;;;9.27;8.57;;;;;;;20.50;50.76;100510.69;4866871;29;20820;-82
2023/06/18 05:57:50;;;;;;;9.73;8.80;;;;;;;20.52;53.25;100499.66;4867334;29;20441;-82
2023/06/18 06:00:38;;;;;;;8.90;8.20;;;;;;;20.50;52.10;100499.44;4863664;29;20922;-82
2023/06/18 06:03:26;;;;;;;9.80;9.00;;;;;;;20.56;52.09;100497.22;4877317;29;20781;-82
2023/06/18 06:06:13;;;;;;;8.70;8.10;;;;;;;20.58;54.26;100494.63;4866910;29;20836;-82
2023/06/18 06:09:00;;;;;;;9.90;9.10;;;;;;;20.70;52.12;100487.44;4864429;29;20456;-82
2023/06/18 06:11:49;;;;;;;9.43;8.73;;;;;;;20.76;52.50;100488.03;4877250;29;20781;-82
2023/06/18 06:14:37;;;;;;;9.53;8.83;;;;;;;20.81;52.81;100489.94;4877748;29;20808;-81
2023/06/18 06:17:24;;;;;;;9.80;9.00;;;;;;;20.94;54.36;100498.28;4864803;29;20476;-82
2023/06/18 06:20:12;;;;;;;8.80;8.17;;;;;;;21.04;53.29;100499.31;4863641;29;20832;-80
2023/06/18 06:22:59;;;;;;;9.80;9.00;;;;;;;21.19;52.56;100496.59;4875737;29;20813;-81
2023/06/18 06:25:47;;;;;;;9.73;9.03;;;;;;;21.35;53.24;100498.91;4860437;29;20934;-81
2023/06/18 06:28:34;;;;;;;9.93;9.13;;;;;;;21.36;53.80;100494.81;4863151;29;20852;-80
2023/06/18 06:31:22;;;;;;;9.60;8.80;;;;;;;21.48;52.78;100495.97;4862566;29;20914;-80
2023/06/18 06:34:11;;;;;;;8.90;8.30;;;;;;;21.60;51.67;100485.16;4870583;29;20458;-80
2023/06/18 06:36:58;;;;;;;9.63;8.83;;;;;;;21.71;51.25;100496.09;4876327;29;20770;-81
2023/06/18 06:39:45;;;;;;;9.67;8.77;;;;;;;21.95;51.31;100498.44;4866578;29;21147;-82
2023/06/18 06:42:33;;;;;;;9.23;8.53;;;;;;;22.11;50.66;100502.78;4869179;29;20820;-81
2023/06/18 06:45:38;;;;;;;9.07;8.27;;;;;;;22.23;52.13;100501.88;4855989;29;20470;-80
2023/06/18 06:48:43;;;;;;;9.93;9.13;;;;;;;22.41;51.37;100502.84;4862382;29;21083;-81
2023/06/18 06:51:40;;;;;;;8.83;8.13;;;;;;;22.49;49.52;100500.78;4873857;29;20449;-81
2023/06/18 06:54:11;;;;;;;10.00;9.20;;;;;;;22.55;49.29;100501.34;4887094;29;20804;-80
2023/06/18 06:56:57;;;;;;;9.30;8.50;;;;;;;22.58;49.58;100508.69;4860577;29;20581;-81
2023/06/18 06:59:44;;;;;;;9.10;8.40;;;;;;;22.59;49.68;100504.53;4864653;29;20855;-81
2023/06/18 07:02:33;;;;;;;9.60;8.90;;;;;;;22.65;49.19;100507.94;4868569;29;20461;-81
2023/06/18 07:05:21;;;;;;;9.03;8.33;;;;;;;22.70;48.17;100505.66;4880737;29;20835;-80
2023/06/18 07:08:08;;;;;;;9.30;8.50;;;;;;;22.83;46.88;100505.47;4868373;29;20852;-81
2023/06/18 07:10:55;;;;;;;8.73;8.03;;;;;;;22.91;46.10;100508.28;4867607;29;20982;-80
2023/06/18 07:13:42;;;;;;;9.87;9.07;;;;;;;23.04;45.84;100506.00;4863380;29;20452;-81
2023/06/18 07:16:30;;;;;;;9.47;8.80;;;;;;;23.19;45.12;100500.38;4867991;29;20465;-81
2023/06/18 07:19:16;;;;;;;8.47;7.90;;;;;;;23.35;44.97;100506.72;4879746;29;20454;-80
2023/06/18 07:22:05;;;;;;;8.37;7.60;;;;;;;23.51;43.05;100503.28;4879655;29;20449;-81
2023/06/18 07:24:53;;;;;;;8.93;8.30;;;;;;;23.73;43.11;100513.72;4868156;29;20824;-80
2023/06/18 07:27:40;;;;;;;9.13;8.30;;;;;;;23.85;42.41;100500.69;4868789;29;20820;-81
2023/06/18 07:30:27;;;;;;;9.00;8.20;;;;;;;24.08;43.59;100504.16;4870391;29;20845;-80
2023/06/18 07:33:14;;;;;;;8.30;7.73;;;;;;;24.18;41.96;100502.22;4878507;29;20445;-81
2023/06/18 07:36:04;;;;;;;8.90;8.20;;;;;;;24.35;41.08;100505.13;4867619;29;20489;-80
2023/06/18 07:38:52;;;;;;;8.90;8.30;;;;;;;24.49;42.47;100502.72;4868194;29;20468;-81
2023/06/18 07:41:41;;;;;;;10.00;9.30;;;;;;;24.51;41.37;100505.75;4864376;29;20791;-81
2023/06/18 07:44:28;;;;;;;9.93;9.23;;;;;;;24.49;41.08;100509.13;4853878;29;20839;-81
2023/06/18 07:47:15;;;;;;;10.50;9.60;;;;;;;24.58;41.62;100499.28;4867916;29;20831;-83
2023/06/18 07:50:02;;;;;;;10.67;9.93;;;;;;;24.59;41.55;100498.72;4872780;29;20795;-81
2023/06/18 07:52:49;;;;;;;10.03;9.23;;;;;;;24.66;41.31;100499.97;4879605;29;20776;-81
2023/06/18 07:55:38;;;;;;;10.30;9.37;;;;;;;24.58;41.03;100502.88;4858621;29;20556;-80
2023/06/18 07:58:25;;;;;;;8.77;8.17;;;;;;;24.64;40.98;100503.41;4865435;29;20895;-81
2023/06/18 08:01:12;;;;;;;9.13;8.30;;;;;;;24.67;41.78;100499.41;4863250;29;20843;-81
2023/06/18 08:03:59;;;;;;;8.83;8.13;;;;;;;24.83;41.29;100503.59;4877162;29;20412;-81
2023/06/18 08:06:48;;;;;;;10.43;9.40;;;;;;;24.80;41.07;100492.72;4865166;29;20444;-80
2023/06/18 08:09:35;;;;;;;9.33;8.53;;;;;;;24.75;40.50;100494.44;4865340;29;20897;-81
2023/06/18 08:12:33;;;;;;;9.93;9.13;;;;;;;24.99;39.82;100498.56;4863416;29;20440;-82
2023/06/18 08:15:20;;;;;;;10.03;9.00;;;;;;;25.13;41.17;100488.41;4874425;29;21071;-82
2023/06/18 08:18:07;;;;;;;11.33;10.43;;;;;;;25.25;39.62;100487.38;4861612;29;20801;-82
2023/06/18 08:20:55;;;;;;;9.50;8.90;;;;;;;25.52;39.88;100485.34;4857388;29;20946;-80
2023/06/18 08:23:42;;;;;;;10.23;9.47;;;;;;;25.73;39.56;100480.00;4863213;29;20805;-80
2023/06/18 08:26:29;;;;;;;10.07;9.27;;;;;;;25.96;38.25;100486.09;4849767;29;20504;-80
2023/06/18 08:29:19;;;;;;;12.60;11.60;;;;;;;26.08;38.54;100481.41;4863656;29;20992;-80
2023/06/18 08:32:07;;;;;;;11.10;10.10;;;;;;;26.24;38.15;100479.84;4858824;29;20413;-80
2023/06/18 08:34:54;;;;;;;10.00;9.20;;;;;;;26.44;37.75;100485.00;4863056;29;20779;-81
2023/06/18 08:37:42;;;;;;;9.97;9.27;;;;;;;26.58;34.78;100476.88;4864097;29;20873;-81
2023/06/18 08:40:31;;;;;;;9.80;9.10;;;;;;;26.61;35.29;100475.69;4865015;29;20903;-80
2023/06/18 08:43:26;;;;;;;9.50;8.70;;;;;;;26.58;35.39;100483.28;4873204;29;20452;-80
2023/06/18 08:46:16;;;;;;;9.30;8.67;;;;;;;26.53;35.52;100477.88;4862022;29;20521;-79
2023/06/18 08:49:04;;;;;;;9.70;9.00;;;;;;;26.45;35.82;100468.72;4872559;29;20813;-80
2023/06/18 08:51:57;;;;;;;9.67;8.97;;;;;;;26.56;35.84;100473.88;4862414;29;20843;-80
2023/06/18 08:54:50;;;;;;;9.23;8.53;;;;;;;26.64;34.21;100480.91;4872426;29;20812;-80
2023/06/18 08:57:43;;;;;;;8.77;8.13;;;;;;;26.66;33.55;100466.13;4862227;29;20448;-80
2023/06/18 09:00:30;;;;;;;9.37;8.40;;;;;;;26.81;34.32;100471.53;4861803;29;20469;-80
2023/06/18 09:03:20;;;;;;;8.73;8.03;;;;;;;26.90;33.70;100456.63;4862326;29;20946;-81
2023/06/18 09:06:08;;;;;;;8.40;7.80;;;;;;;26.90;32.74;100467.97;4856568;29;20835;-80
2023/06/18 09:08:57;;;;;;;9.60;8.90;;;;;;;26.96;32.30;100465.63;4864969;29;20442;-80
2023/06/18 09:11:44;;;;;;;8.47;7.83;;;;;;;26.95;32.86;100469.75;4861130;29;20837;-81
2023/06/18 09:14:36;;;;;;;8.43;7.73;;;;;;;26.96;33.15;100468.44;4866499;29;20807;-81
2023/06/18 09:17:23;;;;;;;9.03;8.33;;;;;;;27.08;33.06;100460.84;4868733;29;20468;-81
2023/06/18 09:20:13;;;;;;;12.50;11.20;;;;;;;27.05;32.60;100473.34;4855012;29;20751;-81
2023/06/18 09:23:08;;;;;;;9.20;8.50;;;;;;;27.04;32.34;100466.19;4868422;29;20891;-81
2023/06/18 09:25:56;;;;;;;8.63;8.03;;;;;;;27.25;32.09;100469.97;4878151;29;20844;-80
2023/06/18 09:28:43;;;;;;;8.70;8.00;;;;;;;27.31;31.53;100461.16;4865046;29;20449;-81
2023/06/18 09:31:30;;;;;;;7.93;7.43;;;;;;;27.41;29.27;100453.38;4865404;29;20856;-81
2023/06/18 09:34:19;;;;;;;7.43;6.93;;;;;;;27.47;30.79;100459.50;4863792;29;20449;-81
2023/06/18 09:37:08;;;;;;;7.97;7.37;;;;;;;27.58;29.74;100461.75;4877889;29;20856;-80
2023/06/18 09:40:07;;;;;;;8.93;8.20;;;;;;;27.63;29.18;100457.81;4863287;29;20831;-80
2023/06/18 09:42:54;;;;;;;7.70;7.10;;;;;;;27.72;28.95;100451.38;4865253;29;20805;-81
2023/06/18 09:45:42;;;;;;;7.43;6.83;;;;;;;27.89;26.90;100445.56;4860643;29;21147;-81
2023/06/18 09:48:29;;;;;;;7.57;7.03;;;;;;;27.72;28.20;100443.63;4866213;29;20467;-81
2023/06/18 09:51:17;;;;;;;7.77;7.07;;;;;;;27.62;28.15;100433.63;4864341;29;20965;-82
2023/06/18 09:54:06;;;;;;;7.73;7.23;;;;;;;27.65;28.65;100449.47;4863304;29;20812;-82
2023/06/18 09:56:58;;;;;;;7.13;6.53;;;;;;;27.62;28.11;100444.97;4863945;29;20836;-82
2023/06/18 09:59:45;;;;;;;7.70;7.13;;;;;;;27.67;27.53;100435.41;4864619;29;20446;-80
2023/06/18 10:02:38;;;;;;;7.03;6.43;;;;;;;27.74;28.67;100445.91;4885512;24;21021;-83
2023/06/18 10:05:25;;;;;;;8.00;7.40;;;;;;;27.63;28.25;100446.47;4862471;29;20464;-83
2023/06/18 10:08:12;;;;;;;7.50;6.93;;;;;;;27.62;27.55;100447.81;4858843;29;20825;-82
2023/06/18 10:11:00;;;;;;;6.80;6.20;;;;;;;27.75;28.10;100444.56;4863145;29;20812;-83
2023/06/18 10:13:49;;;;;;;7.60;7.10;;;;;;;27.90;28.53;100442.13;4857308;29;20801;-82
2023/06/18 10:16:38;;;;;;;7.27;6.60;;;;;;;28.00;27.94;100444.91;4858406;29;20450;-85
2023/06/18 10:19:31;;;;;;;7.07;6.67;;;;;;;28.14;26.28;100437.41;4845894;29;20934;-82
2023/06/18 10:22:19;;;;;;;7.03;6.37;;;;;;;28.05;27.37;100435.34;4855789;29;20961;-82
2023/06/18 10:25:08;;;;;;;7.80;7.10;;;;;;;28.08;28.03;100431.28;4852541;29;20481;-84
2023/06/18 10:27:57;;;;;;;6.80;6.40;;;;;;;27.93;28.02;100432.38;4871712;29;20840;-83
2023/06/18 10:30:45;;;;;;;6.67;6.13;;;;;;;27.87;26.87;100431.22;4851804;29;20454;-84
2023/06/18 10:33:34;;;;;;;6.87;6.33;;;;;;;27.97;26.02;100423.41;4859940;29;20954;-83
2023/06/18 10:36:25;;;;;;;9.07;7.00;;;;;;;28.23;25.68;100428.09;4859138;29;20479;-83
2023/06/18 10:39:12;;;;;;;7.53;6.80;;;;;;;28.41;26.96;100415.16;4857890;29;20528;-82
2023/06/18 10:42:10;;;;;;;7.80;7.20;;;;;;;28.52;27.72;100420.19;4847798;29;20869;-82
2023/06/18 10:45:02;;;;;;;7.57;7.07;;;;;;;28.62;25.69;100409.50;4852647;29;20835;-84
2023/06/18 10:47:49;;;;;;;8.20;7.63;;;;;;;28.69;25.51;100411.38;4853294;29;20473;-84
2023/06/18 10:50:36;;;;;;;7.90;7.30;;;;;;;28.82;25.63;100405.16;4856982;29;20981;-84
2023/06/18 10:53:23;;;;;;;7.63;7.07;;;;;;;29.00;25.01;100412.81;4848165;29;20880;-84
2023/06/18 10:56:10;;;;;;;7.40;6.90;;;;;;;28.98;25.71;100409.84;4856231;29;20812;-83
2023/06/18 10:58:57;;;;;;;7.73;7.23;;;;;;;29.13;25.74;100407.31;4850313;29;20524;-84
2023/06/18 11:01:47;;;;;;;7.47;6.93;;;;;;;29.19;26.03;100402.03;4854086;29;20970;-83
2023/06/18 11:04:35;;;;;;;8.07;7.47;;;;;;;29.68;24.34;100400.94;4852353;29;20816;-82
2023/06/18 11:07:23;;;;;;;7.93;7.10;;;;;;;29.38;24.76;100399.00;4867968;29;20820;-82
2023/06/18 11:10:11;;;;;;;8.10;7.60;;;;;;;29.67;24.81;100405.16;4853988;29;20854;-83
2023/06/18 11:12:58;;;;;;;7.90;7.30;;;;;;;30.00;23.55;100391.56;4859259;29;20844;-82
2023/06/18 11:15:59;;;;;;;7.73;7.13;;;;;;;30.48;22.71;100394.53;4856161;29;20816;-82
2023/06/18 11:18:48;;;;;;;7.50;7.00;;;;;;;30.42;24.63;100399.88;4851335;29;20910;-83
2023/06/18 11:21:37;;;;;;;9.13;7.23;;;;;;;30.63;24.54;100388.34;4856503;29;20956;-81
2023/06/18 11:24:24;;;;;;;7.87;7.37;;;;;;;31.15;23.49;100380.00;4858959;29;21025;-81
2023/06/18 11:27:13;;;;;;;8.50;7.50;;;;;;;31.62;23.00;100381.22;4856773;29;20859;-82
2023/06/18 11:30:01;;;;;;;7.70;7.10;;;;;;;31.49;22.97;100373.38;4851179;29;21116;-83
2023/06/18 11:32:48;;;;;;;7.33;6.70;;;;;;;31.77;24.70;100368.47;4852979;29;20466;-82
2023/06/18 11:35:37;;;;;;;8.30;7.60;;;;;;;31.83;22.02;100363.84;4853039;29;20794;-82
2023/06/18 11:38:25;;;;;;;7.20;6.80;;;;;;;31.76;24.15;100367.72;4859102;29;20453;-82
2023/06/18 11:41:12;;;;;;;7.47;6.87;;;;;;;31.56;23.16;100366.59;4846796;29;21155;-83
2023/06/18 11:44:02;;;;;;;8.37;7.50;;;;;;;31.56;23.30;100363.00;4852831;29;20810;-82
2023/06/18 11:46:49;;;;;;;7.80;7.30;;;;;;;31.69;23.66;100357.38;4854379;29;20824;-82
2023/06/18 11:49:39;;;;;;;7.50;7.00;;;;;;;31.75;22.88;100351.97;4854036;29;20457;-83
2023/06/18 11:52:30;;;;;;;8.17;7.67;;;;;;;31.88;23.12;100356.97;4852795;29;20823;-83
2023/06/18 11:55:18;;;;;;;7.67;7.07;;;;;;;31.48;23.81;100360.44;4852715;29;20956;-82
2023/06/18 11:58:05;;;;;;;7.30;6.90;;;;;;;31.64;24.27;100349.91;4854154;29;20449;-82
2023/06/18 12:00:52;;;;;;;7.73;7.13;;;;;;;31.74;25.28;100347.63;4858336;29;20481;-83
2023/06/18 12:03:39;;;;;;;7.50;7.00;;;;;;;31.85;23.28;100343.19;4858710;29;20814;-83
2023/06/18 12:06:27;;;;;;;7.73;7.23;;;;;;;31.87;23.65;100338.31;4855746;29;20807;-83
2023/06/18 12:09:16;;;;;;;7.60;7.10;;;;;;;32.05;24.47;100336.41;4869019;29;20847;-83
2023/06/18 12:12:13;;;;;;;7.77;7.30;;;;;;;32.12;22.60;100334.66;4852171;29;20833;-83
2023/06/18 12:15:12;;;;;;;8.03;7.53;;;;;;;32.44;23.25;100337.81;4847465;29;20798;-83
2023/06/18 12:18:02;;;;;;;7.37;6.97;;;;;;;32.90;23.88;100330.84;4854104;29;20946;-83
2023/06/18 12:20:50;;;;;;;7.90;7.30;;;;;;;33.12;23.73;100329.03;4856235;29;20806;-82
2023/06/18 12:23:38;;;;;;;8.80;8.00;;;;;;;33.04;22.30;100322.94;4848615;29;20939;-81
2023/06/18 12:26:27;;;;;;;7.83;7.33;;;;;;;33.06;23.65;100325.91;4857472;29;20819;-83
2023/06/18 12:29:17;;;;;;;7.43;7.03;;;;;;;32.62;21.56;100323.69;4859909;29;20824;-83
2023/06/18 12:32:08;;;;;;;7.60;7.10;;;;;;;32.62;22.98;100323.69;4856882;29;20850;-83
2023/06/18 12:34:55;;;;;;;7.67;7.20;;;;;;;32.58;23.02;100317.75;4860711;29;20468;-83
2023/06/18 12:37:43;;;;;;;7.10;6.60;;;;;;;32.47;24.90;100312.91;4848216;29;20906;-83
2023/06/18 12:40:31;;;;;;;7.30;6.83;;;;;;;32.69;22.76;100306.19;4850815;29;20801;-83
2023/06/18 12:43:20;;;;;;;8.00;7.60;;;;;;;32.97;22.86;100306.84;4858621;29;20864;-83
2023/06/18 12:46:07;;;;;;;8.00;7.20;;;;;;;33.05;22.14;100312.97;4848610;29;20939;-84
2023/06/18 12:48:57;;;;;;;8.03;7.33;;;;;;;33.03;23.49;100301.41;4849708;29;20484;-83
2023/06/18 12:51:49;;;;;;;7.60;7.10;;;;;;;33.20;23.98;100303.66;4859424;29;20477;-84
2023/06/18 12:54:38;;;;;;;7.87;7.20;;;;;;;32.78;23.38;100307.34;4860056;29;20456;-84
2023/06/18 12:57:28;;;;;;;8.10;6.90;;;;;;;32.67;23.23;100296.75;4859477;29;20817;-84
2023/06/18 13:00:18;;;;;;;7.80;7.20;;;;;;;32.34;23.07;100293.63;4847110;29;20924;-84